createdAt,value
2018-07-15T00:00:24.905Z,59.37
2018-07-15T00:02:54.088Z,60.50
2018-07-15T00:05:23.340Z,60.08
2018-07-15T00:07:52.755Z,59.26
2018-07-15T00:10:21.991Z,59.38
2018-07-15T00:12:51.193Z,59.38
2018-07-15T00:15:20.351Z,59.77
2018-07-15T00:17:49.564Z,60.20
2018-07-15T00:20:18.841Z,60.23
2018-07-15T00:22:48.137Z,60.29
2018-07-15T00:25:17.298Z,60.74
2018-07-15T00:27:46.447Z,60.85
2018-07-15T00:30:15.667Z,61.21
2018-07-15T00:32:44.803Z,61.11
2018-07-15T00:35:14.012Z,61.17
2018-07-15T00:37:43.699Z,61.31
2018-07-15T00:40:12.888Z,61.22
2018-07-15T00:42:42.028Z,61.32
2018-07-15T00:45:11.273Z,61.31
2018-07-15T00:47:40.424Z,61.14
2018-07-15T00:50:10.503Z,60.89
2018-07-15T00:52:39.732Z,60.91
2018-07-15T00:55:09.025Z,61.12
2018-07-15T00:57:38.249Z,61.49
2018-07-15T01:00:07.841Z,61.63
2018-07-15T01:02:37.090Z,62.38
2018-07-15T01:05:06.293Z,61.99
2018-07-15T01:07:35.431Z,61.87
2018-07-15T01:10:04.767Z,61.92
2018-07-15T01:12:33.973Z,61.80
2018-07-15T01:15:03.144Z,61.76
2018-07-15T01:17:32.276Z,61.84
2018-07-15T01:20:02.236Z,62.03
2018-07-15T01:22:31.388Z,62.35
2018-07-15T01:25:00.555Z,62.18
2018-07-15T01:27:29.687Z,62.68
2018-07-15T01:29:58.879Z,62.66
2018-07-15T01:32:27.995Z,62.66
2018-07-15T01:34:57.172Z,62.14
2018-07-15T01:37:26.311Z,61.96
2018-07-15T01:39:55.495Z,62.11
2018-07-15T01:42:24.640Z,63.40
2018-07-15T01:44:53.833Z,64.00
2018-07-15T01:47:22.980Z,63.69
2018-07-15T01:49:52.164Z,63.69
2018-07-15T01:52:21.319Z,63.79
2018-07-15T01:54:50.536Z,63.65
2018-07-15T01:57:19.709Z,63.77
2018-07-15T01:59:48.910Z,63.56
2018-07-15T02:02:18.068Z,63.58
2018-07-15T02:04:48.239Z,63.64
2018-07-15T02:07:17.369Z,63.13
2018-07-15T02:09:46.562Z,62.82
2018-07-15T02:12:15.676Z,62.65
2018-07-15T02:14:44.944Z,62.85
2018-07-15T02:17:14.084Z,62.45
2018-07-15T02:19:43.452Z,62.95
2018-07-15T02:22:12.643Z,62.28
2018-07-15T02:24:41.840Z,62.34
2018-07-15T02:27:11.017Z,62.61
2018-07-15T02:29:40.238Z,63.55
2018-07-15T02:32:09.375Z,63.74
2018-07-15T02:34:38.564Z,63.08
2018-07-15T02:37:07.745Z,63.24
2018-07-15T02:39:36.908Z,63.47
2018-07-15T02:42:06.097Z,63.70
2018-07-15T02:44:35.512Z,64.19
2018-07-15T02:47:04.770Z,64.09
2018-07-15T02:49:33.926Z,64.35
2018-07-15T02:52:03.100Z,64.10
2018-07-15T02:54:32.304Z,64.63
2018-07-15T02:57:01.478Z,64.38
2018-07-15T02:59:30.616Z,64.40
2018-07-15T03:01:59.785Z,64.58
2018-07-15T03:04:28.899Z,64.53
2018-07-15T03:06:58.065Z,64.85
2018-07-15T03:09:27.164Z,65.05
2018-07-15T03:11:56.318Z,65.24
2018-07-15T03:14:25.435Z,65.02
2018-07-15T03:16:54.637Z,64.53
2018-07-15T03:19:23.760Z,64.61
2018-07-15T03:21:53.030Z,63.63
2018-07-15T03:24:22.260Z,63.66
2018-07-15T03:26:51.437Z,63.74
2018-07-15T03:29:20.578Z,63.03
2018-07-15T03:31:49.779Z,63.83
2018-07-15T03:34:18.996Z,63.45
2018-07-15T03:36:48.196Z,64.21
2018-07-15T03:39:17.496Z,63.71
2018-07-15T03:41:46.682Z,63.74
2018-07-15T03:44:15.832Z,63.59
2018-07-15T03:46:44.988Z,64.23
2018-07-15T03:49:14.125Z,63.64
2018-07-15T03:51:43.298Z,64.33
2018-07-15T03:54:12.432Z,63.96
2018-07-15T03:56:41.622Z,64.28
2018-07-15T03:59:10.749Z,64.66
2018-07-15T04:01:39.952Z,64.30
2018-07-15T04:04:09.117Z,64.74
2018-07-15T04:06:38.283Z,64.66
2018-07-15T04:09:07.524Z,65.02
2018-07-15T04:11:37.219Z,64.75
2018-07-15T04:14:06.429Z,64.99
2018-07-15T04:16:35.543Z,65.10
2018-07-15T04:19:04.740Z,64.80
2018-07-15T04:21:33.989Z,65.12
2018-07-15T04:24:03.137Z,64.63
2018-07-15T04:26:32.352Z,64.67
2018-07-15T04:29:01.677Z,64.98
2018-07-15T04:31:30.969Z,65.06
2018-07-15T04:34:00.101Z,65.00
2018-07-15T04:36:29.324Z,63.99
2018-07-15T04:38:58.452Z,63.75
2018-07-15T04:41:27.639Z,63.17
2018-07-15T04:43:56.837Z,63.48
2018-07-15T04:46:26.019Z,62.62
2018-07-15T04:48:55.129Z,62.43
2018-07-15T04:51:24.254Z,62.38
2018-07-15T04:53:53.396Z,61.72
2018-07-15T04:56:22.592Z,60.75
2018-07-15T04:58:51.740Z,59.39
2018-07-15T05:01:20.906Z,60.02
2018-07-15T05:03:50.045Z,59.70
2018-07-15T05:06:19.286Z,59.44
2018-07-15T05:08:48.401Z,59.26
2018-07-15T05:11:17.675Z,59.80
2018-07-15T05:13:46.829Z,58.11
2018-07-15T05:16:16.104Z,57.76
2018-07-15T05:18:45.284Z,58.02
2018-07-15T05:21:14.460Z,57.65
2018-07-15T05:23:43.600Z,55.88
2018-07-15T05:26:12.739Z,56.79
2018-07-15T05:28:41.914Z,55.27
2018-07-15T05:31:11.118Z,56.18
2018-07-15T05:33:40.296Z,53.82
2018-07-15T05:36:09.499Z,55.75
2018-07-15T05:38:38.745Z,55.79
2018-07-15T05:41:08.055Z,53.29
2018-07-15T05:43:37.258Z,56.54
2018-07-15T05:46:06.576Z,54.41
2018-07-15T05:48:35.752Z,53.61
2018-07-15T05:51:04.982Z,53.33
2018-07-15T05:53:34.260Z,52.70
2018-07-15T05:56:03.555Z,52.56
2018-07-15T05:58:32.777Z,53.51
2018-07-15T06:01:01.892Z,53.42
2018-07-15T06:03:31.187Z,54.02
2018-07-15T06:06:00.401Z,54.13
2018-07-15T06:08:29.711Z,52.42
2018-07-15T06:10:58.809Z,51.27
2018-07-15T06:13:27.938Z,50.44
2018-07-15T06:15:57.059Z,52.43
2018-07-15T06:18:26.235Z,53.21
2018-07-15T06:20:55.408Z,52.84
2018-07-15T06:23:24.574Z,53.11
2018-07-15T06:25:53.699Z,53.07
2018-07-15T06:28:22.903Z,51.88
2018-07-15T06:30:52.111Z,53.07
2018-07-15T06:33:21.295Z,53.51
2018-07-15T06:35:50.412Z,52.00
2018-07-15T06:38:19.572Z,52.64
2018-07-15T06:40:48.749Z,52.66
2018-07-15T06:43:17.935Z,51.58
2018-07-15T06:45:47.172Z,52.05
2018-07-15T06:48:16.377Z,53.45
2018-07-15T06:50:45.521Z,51.31
2018-07-15T06:53:14.740Z,52.09
2018-07-15T06:55:43.869Z,50.94
2018-07-15T06:58:13.044Z,51.65
2018-07-15T07:00:42.179Z,51.47
2018-07-15T07:03:11.613Z,50.92
2018-07-15T07:05:40.956Z,51.88
2018-07-15T07:08:10.860Z,51.47
2018-07-15T07:10:40.236Z,51.53
2018-07-15T07:13:09.629Z,50.04
2018-07-15T07:15:38.915Z,51.46
2018-07-15T07:18:08.206Z,51.42
2018-07-15T07:20:37.589Z,51.05
2018-07-15T07:23:06.957Z,50.79
2018-07-15T07:25:36.594Z,51.06
2018-07-15T07:28:05.796Z,51.40
2018-07-15T07:30:34.989Z,50.27
2018-07-15T07:33:04.152Z,51.18
2018-07-15T07:35:33.314Z,50.60
2018-07-15T07:38:02.505Z,50.75
2018-07-15T07:40:31.700Z,50.71
2018-07-15T07:43:00.856Z,49.58
2018-07-15T07:45:29.982Z,50.03
2018-07-15T07:47:59.153Z,49.46
2018-07-15T07:50:28.268Z,47.40
2018-07-15T07:52:57.492Z,48.32
2018-07-15T07:55:26.604Z,48.10
2018-07-15T07:57:55.869Z,49.11
2018-07-15T08:00:25.060Z,47.57
2018-07-15T08:02:54.247Z,48.32
2018-07-15T08:05:23.392Z,48.41
2018-07-15T08:07:52.576Z,49.27
2018-07-15T08:10:21.801Z,48.16
2018-07-15T08:12:50.968Z,47.76
2018-07-15T08:15:20.329Z,46.73
2018-07-15T08:17:49.440Z,47.54
2018-07-15T08:20:18.646Z,44.79
2018-07-15T08:22:47.812Z,46.45
2018-07-15T08:25:16.993Z,45.16
2018-07-15T08:27:46.157Z,42.80
2018-07-15T08:30:26.446Z,44.16
2018-07-15T08:32:55.643Z,44.55
2018-07-15T08:35:24.816Z,44.67
2018-07-15T08:37:54.132Z,43.79
2018-07-15T08:40:23.477Z,41.90
2018-07-15T08:42:52.721Z,42.74
2018-07-15T08:45:21.899Z,42.62
2018-07-15T08:47:51.231Z,42.56
2018-07-15T08:50:21.424Z,43.03
2018-07-15T08:52:50.751Z,40.69
2018-07-15T08:55:20.016Z,40.05
2018-07-15T08:57:49.208Z,40.66
2018-07-15T09:00:18.559Z,39.28
2018-07-15T09:02:47.808Z,38.71
2018-07-15T09:05:17.071Z,39.89
2018-07-15T09:07:46.408Z,39.32
2018-07-15T09:10:15.738Z,37.51
2018-07-15T09:12:45.086Z,37.45
2018-07-15T09:15:14.291Z,37.14
2018-07-15T09:17:43.612Z,37.14
2018-07-15T09:20:13.549Z,36.92
2018-07-15T09:22:42.857Z,36.94
2018-07-15T09:25:12.636Z,36.68
2018-07-15T09:27:42.136Z,36.26
2018-07-15T09:30:11.443Z,36.01
2018-07-15T09:32:40.844Z,36.45
2018-07-15T09:35:10.489Z,35.40
2018-07-15T09:37:39.917Z,37.25
2018-07-15T09:40:09.255Z,37.09
2018-07-15T09:42:38.467Z,36.72
2018-07-15T09:45:07.930Z,36.60
2018-07-15T09:47:37.609Z,36.97
2018-07-15T09:50:07.111Z,35.76
2018-07-15T09:52:36.438Z,34.04
2018-07-15T09:55:05.951Z,36.18
2018-07-15T09:57:35.548Z,34.29
2018-07-15T10:00:05.017Z,33.13
2018-07-15T10:02:34.100Z,35.55
2018-07-15T10:05:03.296Z,33.89
2018-07-15T10:07:32.448Z,34.99
2018-07-15T10:10:01.633Z,34.83
2018-07-15T10:12:30.852Z,34.58
2018-07-15T10:15:00.662Z,35.01
2018-07-15T10:17:29.822Z,34.29
2018-07-15T10:19:59.444Z,33.59
2018-07-15T10:22:28.737Z,34.50
2018-07-15T10:24:58.350Z,34.00
2018-07-15T10:27:28.156Z,33.85
2018-07-15T10:29:57.976Z,34.67
2018-07-15T10:32:27.594Z,32.27
2018-07-15T10:34:57.281Z,32.71
2018-07-15T10:37:26.884Z,34.12
2018-07-15T10:39:57.121Z,33.84
2018-07-15T10:42:27.285Z,33.24
2018-07-15T10:44:57.392Z,33.04
2018-07-15T10:47:27.218Z,34.00
2018-07-15T10:49:56.703Z,33.43
2018-07-15T10:52:26.253Z,33.63
2018-07-15T10:54:55.842Z,33.87
2018-07-15T10:57:25.769Z,33.32
2018-07-15T10:59:55.431Z,33.02
2018-07-15T11:02:25.772Z,34.18
2018-07-15T11:04:55.134Z,33.21
2018-07-15T11:07:24.548Z,34.55
2018-07-15T11:09:54.004Z,34.67
2018-07-15T11:12:23.535Z,34.77
2018-07-15T11:14:52.924Z,34.70
2018-07-15T11:17:22.981Z,34.99
2018-07-15T11:19:53.062Z,34.26
2018-07-15T11:22:22.454Z,34.29
2018-07-15T11:24:51.799Z,34.06
2018-07-15T11:27:21.236Z,33.79
2018-07-15T11:29:50.638Z,33.17
2018-07-15T11:32:20.076Z,34.15
2018-07-15T11:34:49.535Z,33.95
2018-07-15T11:37:19.459Z,34.04
2018-07-15T11:39:48.770Z,32.71
2018-07-15T11:42:18.429Z,33.26
2018-07-15T11:44:47.879Z,34.50
2018-07-15T11:47:17.468Z,35.18
2018-07-15T11:49:46.784Z,34.73
2018-07-15T11:52:16.306Z,35.29
2018-07-15T11:54:45.782Z,34.94
2018-07-15T11:57:15.289Z,32.37
2018-07-15T11:59:44.705Z,34.19
2018-07-15T12:02:14.326Z,32.48
2018-07-15T12:04:43.922Z,31.27
2018-07-15T12:07:14.090Z,32.61
2018-07-15T12:09:43.554Z,31.83
2018-07-15T12:12:13.007Z,31.42
2018-07-15T12:14:42.512Z,31.86
2018-07-15T12:17:11.950Z,32.75
2018-07-15T12:19:41.580Z,31.03
2018-07-15T12:22:10.933Z,29.78
2018-07-15T12:24:40.410Z,30.14
2018-07-15T12:27:09.953Z,29.83
2018-07-15T12:29:39.292Z,29.20
2018-07-15T12:32:09.140Z,30.21
2018-07-15T12:34:38.418Z,28.45
2018-07-15T12:37:07.820Z,29.08
2018-07-15T12:39:38.362Z,28.25
2018-07-15T12:42:08.121Z,28.95
2018-07-15T12:44:38.019Z,29.40
2018-07-15T12:47:08.052Z,30.91
2018-07-15T12:49:37.732Z,28.96
2018-07-15T12:52:07.899Z,29.68
2018-07-15T12:54:37.682Z,29.22
2018-07-15T12:57:07.068Z,29.64
2018-07-15T12:59:36.828Z,29.30
2018-07-15T13:02:06.371Z,29.99
2018-07-15T13:04:35.759Z,30.44
2018-07-15T13:07:05.174Z,30.60
2018-07-15T13:09:34.863Z,30.74
2018-07-15T13:12:04.632Z,28.86
2018-07-15T13:14:34.096Z,27.69
2018-07-15T13:17:03.610Z,28.40
2018-07-15T13:19:33.399Z,28.76
2018-07-15T13:22:02.898Z,27.82
2018-07-15T13:24:32.459Z,28.04
2018-07-15T13:27:01.988Z,27.66
2018-07-15T13:29:31.549Z,27.71
2018-07-15T13:32:01.679Z,28.49
2018-07-15T13:34:31.401Z,29.59
2018-07-15T13:37:10.509Z,29.52
2018-07-15T13:39:40.065Z,29.74
2018-07-15T13:42:09.720Z,30.99
2018-07-15T13:44:39.249Z,32.37
2018-07-15T13:47:08.833Z,30.66
2018-07-15T13:49:38.384Z,31.09
2018-07-15T13:52:07.896Z,31.64
2018-07-15T13:54:37.668Z,32.27
2018-07-15T13:57:07.036Z,30.05
2018-07-15T13:59:36.654Z,28.95
2018-07-15T14:02:06.144Z,28.61
2018-07-15T14:04:35.444Z,26.58
2018-07-15T14:07:04.716Z,26.12
2018-07-15T14:09:34.125Z,26.71
2018-07-15T14:12:03.491Z,27.49
2018-07-15T14:14:32.732Z,26.87
2018-07-15T14:17:03.886Z,27.34
2018-07-15T14:19:33.040Z,26.94
2018-07-15T14:22:02.439Z,27.86
2018-07-15T14:24:31.605Z,26.67
2018-07-15T14:27:00.717Z,26.61
2018-07-15T14:29:29.874Z,28.66
2018-07-15T14:31:59.019Z,28.78
2018-07-15T14:34:28.224Z,29.15
2018-07-15T14:36:57.370Z,29.44
2018-07-15T14:39:39.340Z,29.95
2018-07-15T14:42:08.653Z,28.59
2018-07-15T14:44:38.974Z,29.85
2018-07-15T14:47:08.117Z,28.74
2018-07-15T14:49:37.287Z,29.84
2018-07-15T14:52:06.401Z,31.11
2018-07-15T14:54:35.548Z,30.12
2018-07-15T14:57:04.673Z,30.67
2018-07-15T14:59:33.832Z,29.41
2018-07-15T15:02:02.957Z,28.19
2018-07-15T15:04:32.136Z,28.37
2018-07-15T15:07:01.243Z,28.69
2018-07-15T15:09:31.745Z,27.50
2018-07-15T15:12:01.013Z,28.51
2018-07-15T15:14:30.192Z,27.56
2018-07-15T15:16:59.322Z,28.14
2018-07-15T15:19:28.547Z,28.60
2018-07-15T15:21:57.727Z,27.50
2018-07-15T15:24:26.860Z,26.78
2018-07-15T15:26:56.008Z,26.69
2018-07-15T15:29:25.312Z,26.70
2018-07-15T15:31:54.437Z,27.90
2018-07-15T15:34:23.649Z,28.32
2018-07-15T15:36:52.836Z,27.79
2018-07-15T15:39:21.994Z,30.02
2018-07-15T15:41:51.111Z,29.57
2018-07-15T15:44:20.234Z,28.76
2018-07-15T15:46:49.494Z,29.48
2018-07-15T15:49:18.641Z,29.21
2018-07-15T15:51:47.951Z,29.69
2018-07-15T15:54:17.174Z,29.56
2018-07-15T15:56:46.352Z,29.42
2018-07-15T15:59:15.525Z,27.97
2018-07-15T16:01:44.716Z,28.45
2018-07-15T16:04:13.893Z,29.57
2018-07-15T16:06:43.045Z,28.39
2018-07-15T16:09:13.161Z,26.44
2018-07-15T16:11:42.322Z,27.72
2018-07-15T16:14:11.489Z,28.77
2018-07-15T16:16:40.680Z,29.35
2018-07-15T16:19:09.921Z,29.13
2018-07-15T16:21:39.054Z,28.95
2018-07-15T16:24:08.216Z,28.93
2018-07-15T16:26:37.376Z,28.91
2018-07-15T16:29:06.514Z,29.95
2018-07-15T16:31:35.660Z,29.65
2018-07-15T16:34:04.835Z,30.65
2018-07-15T16:36:34.075Z,30.27
2018-07-15T16:39:03.323Z,29.46
2018-07-15T16:41:32.581Z,29.92
2018-07-15T16:44:01.706Z,31.08
2018-07-15T16:46:30.879Z,30.33
2018-07-15T16:49:00.736Z,29.15
2018-07-15T16:51:30.008Z,30.34
2018-07-15T16:53:59.120Z,28.44
2018-07-15T16:56:28.283Z,29.44
2018-07-15T16:58:57.408Z,30.15
2018-07-15T17:01:26.634Z,30.81
2018-07-15T17:03:55.792Z,31.17
2018-07-15T17:06:24.956Z,29.98
2018-07-15T17:08:54.092Z,30.18
2018-07-15T17:11:23.240Z,29.83
2018-07-15T17:13:52.426Z,29.20
2018-07-15T17:16:21.626Z,30.62
2018-07-15T17:18:50.811Z,30.32
2018-07-15T17:21:20.001Z,30.38
2018-07-15T17:23:49.157Z,30.94
2018-07-15T17:26:18.323Z,31.18
2018-07-15T17:28:47.453Z,31.25
2018-07-15T17:31:16.602Z,32.10
2018-07-15T17:33:45.817Z,32.06
2018-07-15T17:36:14.960Z,33.14
2018-07-15T17:38:44.113Z,33.17
2018-07-15T17:41:14.244Z,32.98
2018-07-15T17:46:21.617Z,32.79
2018-07-15T17:48:51.707Z,33.30
2018-07-15T17:51:20.914Z,33.33
2018-07-15T17:53:51.168Z,33.57
2018-07-15T17:56:20.388Z,34.18
2018-07-15T17:58:49.652Z,34.40
2018-07-15T18:01:19.861Z,34.88
2018-07-15T18:03:49.286Z,34.46
2018-07-15T18:06:19.276Z,35.10
2018-07-15T18:08:48.635Z,35.61
2018-07-15T18:11:18.264Z,35.13
2018-07-15T18:13:47.546Z,35.37
2018-07-15T18:16:16.876Z,35.21
2018-07-15T18:18:46.303Z,36.18
2018-07-15T18:21:15.595Z,36.69
2018-07-15T18:23:44.935Z,36.63
2018-07-15T18:26:14.224Z,36.80
2018-07-15T18:28:43.769Z,36.67
2018-07-15T18:31:13.032Z,36.97
2018-07-15T18:33:43.328Z,37.51
2018-07-15T18:36:12.910Z,38.09
2018-07-15T18:38:42.173Z,38.40
2018-07-15T18:41:11.582Z,38.08
2018-07-15T18:43:40.944Z,38.34
2018-07-15T18:46:10.213Z,37.46
2018-07-15T18:48:39.745Z,37.83
2018-07-15T18:51:08.951Z,38.66
2018-07-15T18:53:38.552Z,38.39
2018-07-15T18:56:07.831Z,38.14
2018-07-15T18:58:37.100Z,37.84
2018-07-15T19:01:06.432Z,39.88
2018-07-15T19:03:35.704Z,41.65
2018-07-15T19:06:05.111Z,41.73
2018-07-15T19:08:34.337Z,42.27
2018-07-15T19:11:03.518Z,42.90
2018-07-15T19:13:32.819Z,42.98
2018-07-15T19:16:02.106Z,42.74
2018-07-15T19:18:31.476Z,43.98
2018-07-15T19:21:00.795Z,43.71
2018-07-15T19:23:30.113Z,43.54
2018-07-15T19:25:59.405Z,44.64
2018-07-15T19:28:29.097Z,44.20
2018-07-15T19:31:01.579Z,44.31
2018-07-15T19:33:30.988Z,43.41
2018-07-15T19:36:00.456Z,44.04
2018-07-15T19:38:29.855Z,43.70
2018-07-15T19:40:59.100Z,44.35
2018-07-15T19:43:28.566Z,44.66
2018-07-15T19:45:57.804Z,45.25
2018-07-15T19:48:27.144Z,43.28
2018-07-15T19:50:56.341Z,43.26
2018-07-15T19:53:25.685Z,42.73
2018-07-15T19:55:55.137Z,41.94
2018-07-15T19:58:24.537Z,40.89
2018-07-15T20:00:53.720Z,41.16
2018-07-15T20:03:23.049Z,39.64
2018-07-15T20:05:53.168Z,40.16
2018-07-15T20:08:22.464Z,40.35
2018-07-15T20:10:51.755Z,40.50
2018-07-15T20:13:21.068Z,39.96
2018-07-15T20:15:50.204Z,39.80
2018-07-15T20:18:19.480Z,39.61
2018-07-15T20:20:48.809Z,39.47
2018-07-15T20:23:18.285Z,40.90
2018-07-15T20:25:47.425Z,39.08
2018-07-15T20:28:17.199Z,38.74
2018-07-15T20:30:46.484Z,38.74
2018-07-15T20:33:15.861Z,38.98
2018-07-15T20:35:45.065Z,39.08
2018-07-15T20:38:14.693Z,38.37
2018-07-15T20:40:44.073Z,38.36
2018-07-15T20:43:13.240Z,38.96
2018-07-15T20:45:42.367Z,38.95
2018-07-15T20:48:11.517Z,39.49
2018-07-15T20:50:40.889Z,39.22
2018-07-15T20:53:10.792Z,39.22
2018-07-15T20:55:40.086Z,38.99
2018-07-15T20:58:09.296Z,39.56
2018-07-15T21:00:38.588Z,39.95
2018-07-15T21:03:07.812Z,40.08
2018-07-15T21:05:37.084Z,40.64
2018-07-15T21:08:06.341Z,42.01
2018-07-15T21:10:36.593Z,41.79
2018-07-15T21:13:06.050Z,41.34
2018-07-15T21:15:35.273Z,42.87
2018-07-15T21:18:04.473Z,44.27
2018-07-15T21:20:33.714Z,45.81
2018-07-15T21:23:03.104Z,46.40
2018-07-15T21:25:32.464Z,46.82
2018-07-15T21:28:01.703Z,46.62
2018-07-15T21:30:31.033Z,46.64
2018-07-15T21:33:00.172Z,47.06
2018-07-15T21:35:29.374Z,45.56
2018-07-15T21:37:58.609Z,45.88
2018-07-15T21:40:27.784Z,47.64
2018-07-15T21:42:57.021Z,47.66
2018-07-15T21:45:26.189Z,47.60
2018-07-15T21:47:56.284Z,47.11
2018-07-15T21:50:25.461Z,47.27
2018-07-15T21:52:54.590Z,47.29
2018-07-15T21:55:23.785Z,48.10
2018-07-15T21:57:53.393Z,47.80
2018-07-15T22:00:23.110Z,48.04
2018-07-15T22:02:52.415Z,46.87
2018-07-15T22:05:21.592Z,46.58
2018-07-15T22:08:02.259Z,47.08
2018-07-15T22:10:40.596Z,47.00
2018-07-15T22:13:09.817Z,45.93
2018-07-15T22:15:39.116Z,46.24
2018-07-15T22:18:08.320Z,46.46
2018-07-15T22:20:37.992Z,46.55
2018-07-15T22:23:07.968Z,45.29
2018-07-15T22:25:37.208Z,44.81
2018-07-15T22:28:06.432Z,45.54
2018-07-15T22:30:35.891Z,45.85
2018-07-15T22:33:05.076Z,45.07
2018-07-15T22:35:34.268Z,44.85
2018-07-15T22:38:03.533Z,44.63
2018-07-15T22:40:32.890Z,44.52
2018-07-15T22:43:02.120Z,44.73
2018-07-15T22:45:31.396Z,44.23
2018-07-15T22:48:00.633Z,44.47
2018-07-15T22:50:29.861Z,44.80
2018-07-15T22:52:59.186Z,44.95
2018-07-15T22:55:28.477Z,44.39
2018-07-15T22:57:57.626Z,44.20
2018-07-15T23:00:26.870Z,44.08
2018-07-15T23:02:56.273Z,44.24
2018-07-15T23:05:38.591Z,44.17
2018-07-15T23:08:08.183Z,44.54
2018-07-15T23:10:37.535Z,44.97
2018-07-15T23:13:07.766Z,44.71
2018-07-15T23:15:37.723Z,44.87
2018-07-15T23:18:07.197Z,44.64
2018-07-15T23:20:37.551Z,44.10
2018-07-15T23:23:07.886Z,44.58
2018-07-15T23:25:37.207Z,44.82
2018-07-15T23:28:07.305Z,44.38
2018-07-15T23:30:37.306Z,45.09
2018-07-15T23:33:07.100Z,44.39
2018-07-15T23:35:36.377Z,44.81
2018-07-15T23:38:05.672Z,45.70
2018-07-15T23:40:35.033Z,46.62
2018-07-15T23:43:04.503Z,46.03
2018-07-15T23:45:34.660Z,46.70
2018-07-15T23:48:04.044Z,46.67
2018-07-15T23:50:33.439Z,45.81
2018-07-15T23:53:02.728Z,46.58
2018-07-15T23:55:31.985Z,48.01
2018-07-15T23:58:01.334Z,48.26
